sensor_id;sensor_type;location;lat;lon;timestamp;temperature;humidity
32749;DHT22;19119;52.474;13.710;2024-03-23T00:53:39;8.60;99.90
32749;DHT22;19119;52.474;13.710;2024-03-23T00:56:05;8.60;99.90
32749;DHT22;19119;52.474;13.710;2024-03-23T00:58:30;8.50;99.90
32749;DHT22;19119;52.474;13.710;2024-03-23T01:00:56;8.50;99.90
32749;DHT22;19119;52.474;13.710;2024-03-23T01:03:22;8.50;99.90
32749;DHT22;19119;52.474;13.710;2024-03-23T01:05:47;8.40;99.90
32749;DHT22;19119;52.474;13.710;2024-03-23T01:08:14;8.50;99.90
32749;DHT22;19119;52.474;13.710;2024-03-23T01:10:39;8.50;99.90
32749;DHT22;19119;52.474;13.710;2024-03-23T01:13:05;8.40;99.90
32749;DHT22;19119;52.474;13.710;2024-03-23T01:15:30;8.40;99.90
32749;DHT22;19119;52.474;13.710;2024-03-23T01:17:56;8.40;99.90
32749;DHT22;19119;52.474;13.710;2024-03-23T01:20:21;8.40;99.90
32749;DHT22;19119;52.474;13.710;2024-03-23T01:22:47;8.40;99.90
32749;DHT22;19119;52.474;13.710;2024-03-23T01:25:12;8.40;99.90
32749;DHT22;19119;52.474;13.710;2024-03-23T01:27:38;8.50;99.90
32749;DHT22;19119;52.474;13.710;2024-03-23T01:30:04;8.40;99.90
32749;DHT22;19119;52.474;13.710;2024-03-23T01:32:29;8.40;99.90
32749;DHT22;19119;52.474;13.710;2024-03-23T01:34:55;8.40;99.90
32749;DHT22;19119;52.474;13.710;2024-03-23T01:37:20;8.50;99.90
32749;DHT22;19119;52.474;13.710;2024-03-23T01:39:46;8.60;99.90
32749;DHT22;19119;52.474;13.710;2024-03-23T01:42:12;8.50;99.90
32749;DHT22;19119;52.474;13.710;2024-03-23T01:44:37;8.40;99.90
32749;DHT22;19119;52.474;13.710;2024-03-23T01:47:03;8.50;99.90
32749;DHT22;19119;52.474;13.710;2024-03-23T01:49:29;8.40;99.90
32749;DHT22;19119;52.474;13.710;2024-03-23T01:51:55;8.40;99.90
32749;DHT22;19119;52.474;13.710;2024-03-23T01:54:20;8.30;99.90
32749;DHT22;19119;52.474;13.710;2024-03-23T01:56:47;8.30;99.90
32749;DHT22;19119;52.474;13.710;2024-03-23T01:59:13;8.30;99.90
32749;DHT22;19119;52.474;13.710;2024-03-23T02:01:38;8.30;99.90
32749;DHT22;19119;52.474;13.710;2024-03-23T02:04:04;8.30;99.90
32749;DHT22;19119;52.474;13.710;2024-03-23T02:06:30;8.30;99.90
32749;DHT22;19119;52.474;13.710;2024-03-23T02:08:56;8.30;99.90
32749;DHT22;19119;52.474;13.710;2024-03-23T02:11:22;8.30;99.90
32749;DHT22;19119;52.474;13.710;2024-03-23T02:13:47;8.30;99.90
32749;DHT22;19119;52.474;13.710;2024-03-23T02:16:13;8.30;99.90
32749;DHT22;19119;52.474;13.710;2024-03-23T02:18:39;8.30;99.90
32749;DHT22;19119;52.474;13.710;2024-03-23T02:21:05;8.30;99.90
32749;DHT22;19119;52.474;13.710;2024-03-23T02:23:30;8.30;99.90
32749;DHT22;19119;52.474;13.710;2024-03-23T02:25:56;8.20;99.90
32749;DHT22;19119;52.474;13.710;2024-03-23T02:28:22;8.20;99.90
32749;DHT22;19119;52.474;13.710;2024-03-23T02:30:50;8.10;99.90
32749;DHT22;19119;52.474;13.710;2024-03-23T02:33:16;8.20;99.90
32749;DHT22;19119;52.474;13.710;2024-03-23T02:35:42;8.20;99.90
32749;DHT22;19119;52.474;13.710;2024-03-23T02:38:07;8.20;99.90
32749;DHT22;19119;52.474;13.710;2024-03-23T02:40:33;8.10;99.90
32749;DHT22;19119;52.474;13.710;2024-03-23T02:42:58;8.10;99.90
32749;DHT22;19119;52.474;13.710;2024-03-23T02:45:24;8.20;99.90
32749;DHT22;19119;52.474;13.710;2024-03-23T02:47:49;8.20;99.90
32749;DHT22;19119;52.474;13.710;2024-03-23T02:50:19;8.20;99.90
32749;DHT22;19119;52.474;13.710;2024-03-23T02:52:44;8.20;99.90
32749;DHT22;19119;52.474;13.710;2024-03-23T02:55:10;8.20;99.90
32749;DHT22;19119;52.474;13.710;2024-03-23T02:57:35;8.20;99.90
32749;DHT22;19119;52.474;13.710;2024-03-23T03:00:01;8.20;99.90
32749;DHT22;19119;52.474;13.710;2024-03-23T03:02:26;8.20;99.90
32749;DHT22;19119;52.474;13.710;2024-03-23T03:04:52;8.20;99.90
32749;DHT22;19119;52.474;13.710;2024-03-23T03:07:17;8.20;99.90
32749;DHT22;19119;52.474;13.710;2024-03-23T03:09:43;8.20;99.90
32749;DHT22;19119;52.474;13.710;2024-03-23T03:12:09;8.20;99.90
32749;DHT22;19119;52.474;13.710;2024-03-23T03:14:34;8.10;99.90
32749;DHT22;19119;52.474;13.710;2024-03-23T03:17:00;8.20;99.90
32749;DHT22;19119;52.474;13.710;2024-03-23T03:19:26;8.20;99.90
32749;DHT22;19119;52.474;13.710;2024-03-23T03:21:51;8.10;99.90
32749;DHT22;19119;52.474;13.710;2024-03-23T03:24:17;8.10;99.90
32749;DHT22;19119;52.474;13.710;2024-03-23T03:26:43;8.10;99.90
32749;DHT22;19119;52.474;13.710;2024-03-23T03:29:08;8.10;99.90
32749;DHT22;19119;52.474;13.710;2024-03-23T03:31:34;8.10;99.90
32749;DHT22;19119;52.474;13.710;2024-03-23T03:33:59;8.10;99.90
32749;DHT22;19119;52.474;13.710;2024-03-23T03:36:25;8.20;99.90
32749;DHT22;19119;52.474;13.710;2024-03-23T03:38:50;8.10;99.90
32749;DHT22;19119;52.474;13.710;2024-03-23T03:41:16;8.10;99.90
32749;DHT22;19119;52.474;13.710;2024-03-23T03:43:41;8.10;99.90
32749;DHT22;19119;52.474;13.710;2024-03-23T03:46:07;8.10;99.90
32749;DHT22;19119;52.474;13.710;2024-03-23T03:48:36;8.00;99.90
32749;DHT22;19119;52.474;13.710;2024-03-23T03:51:02;8.00;99.90
32749;DHT22;19119;52.474;13.710;2024-03-23T03:53:27;8.10;99.90
32749;DHT22;19119;52.474;13.710;2024-03-23T03:55:53;8.10;99.90
32749;DHT22;19119;52.474;13.710;2024-03-23T03:58:18;8.10;99.90
32749;DHT22;19119;52.474;13.710;2024-03-23T04:00:44;8.10;99.90
32749;DHT22;19119;52.474;13.710;2024-03-23T04:03:09;8.10;99.90
32749;DHT22;19119;52.474;13.710;2024-03-23T04:05:35;8.10;99.90
32749;DHT22;19119;52.474;13.710;2024-03-23T04:08:00;8.10;99.90
32749;DHT22;19119;52.474;13.710;2024-03-23T04:10:26;8.10;99.90
32749;DHT22;19119;52.474;13.710;2024-03-23T04:12:52;8.20;99.90
32749;DHT22;19119;52.474;13.710;2024-03-23T04:15:18;8.00;99.90
32749;DHT22;19119;52.474;13.710;2024-03-23T04:17:44;8.00;99.90
32749;DHT22;19119;52.474;13.710;2024-03-23T04:20:10;8.00;99.90
32749;DHT22;19119;52.474;13.710;2024-03-23T04:22:37;8.00;99.90
32749;DHT22;19119;52.474;13.710;2024-03-23T04:25:03;7.90;99.90
32749;DHT22;19119;52.474;13.710;2024-03-23T04:27:36;7.80;99.90
32749;DHT22;19119;52.474;13.710;2024-03-23T04:30:02;7.80;99.90
32749;DHT22;19119;52.474;13.710;2024-03-23T04:32:29;7.70;99.90
32749;DHT22;19119;52.474;13.710;2024-03-23T04:34:55;7.70;99.90
32749;DHT22;19119;52.474;13.710;2024-03-23T04:37:21;7.60;99.90
32749;DHT22;19119;52.474;13.710;2024-03-23T04:39:47;7.60;99.90
32749;DHT22;19119;52.474;13.710;2024-03-23T04:42:15;7.60;99.90
32749;DHT22;19119;52.474;13.710;2024-03-23T04:44:40;7.40;99.90
32749;DHT22;19119;52.474;13.710;2024-03-23T04:47:06;7.40;99.90
32749;DHT22;19119;52.474;13.710;2024-03-23T04:49:31;7.30;99.90
32749;DHT22;19119;52.474;13.710;2024-03-23T04:51:57;7.30;99.90
32749;DHT22;19119;52.474;13.710;2024-03-23T04:54:22;7.20;99.90
32749;DHT22;19119;52.474;13.710;2024-03-23T04:56:48;7.30;99.90
32749;DHT22;19119;52.474;13.710;2024-03-23T04:59:15;7.30;99.90
32749;DHT22;19119;52.474;13.710;2024-03-23T05:01:40;7.30;99.90
32749;DHT22;19119;52.474;13.710;2024-03-23T05:04:07;7.30;99.90
32749;DHT22;19119;52.474;13.710;2024-03-23T05:06:33;7.30;99.90
32749;DHT22;19119;52.474;13.710;2024-03-23T05:08:59;7.30;99.90
32749;DHT22;19119;52.474;13.710;2024-03-23T05:11:25;7.30;99.90
32749;DHT22;19119;52.474;13.710;2024-03-23T05:13:50;7.30;99.90
32749;DHT22;19119;52.474;13.710;2024-03-23T05:16:16;7.30;99.90
32749;DHT22;19119;52.474;13.710;2024-03-23T05:18:41;7.30;99.90
32749;DHT22;19119;52.474;13.710;2024-03-23T05:21:07;7.30;99.90
32749;DHT22;19119;52.474;13.710;2024-03-23T05:23:32;7.30;99.90
32749;DHT22;19119;52.474;13.710;2024-03-23T05:25:58;7.30;99.90
32749;DHT22;19119;52.474;13.710;2024-03-23T05:28:23;7.30;99.90
32749;DHT22;19119;52.474;13.710;2024-03-23T05:30:55;7.30;99.90
32749;DHT22;19119;52.474;13.710;2024-03-23T05:33:21;7.30;99.90
32749;DHT22;19119;52.474;13.710;2024-03-23T05:35:47;7.30;99.90
32749;DHT22;19119;52.474;13.710;2024-03-23T05:38:13;7.20;99.90
32749;DHT22;19119;52.474;13.710;2024-03-23T05:40:39;7.30;99.90
32749;DHT22;19119;52.474;13.710;2024-03-23T05:43:08;7.40;99.90
32749;DHT22;19119;52.474;13.710;2024-03-23T05:45:34;7.30;99.90
32749;DHT22;19119;52.474;13.710;2024-03-23T05:48:00;7.10;99.90
32749;DHT22;19119;52.474;13.710;2024-03-23T05:50:25;7.00;99.90
32749;DHT22;19119;52.474;13.710;2024-03-23T05:52:51;7.00;99.90
32749;DHT22;19119;52.474;13.710;2024-03-23T05:55:16;6.90;99.90
32749;DHT22;19119;52.474;13.710;2024-03-23T05:57:42;6.90;99.90
32749;DHT22;19119;52.474;13.710;2024-03-23T06:00:07;6.80;99.90
32749;DHT22;19119;52.474;13.710;2024-03-23T06:02:44;6.80;99.90
32749;DHT22;19119;52.474;13.710;2024-03-23T06:05:12;6.70;99.90
32749;DHT22;19119;52.474;13.710;2024-03-23T06:07:38;6.70;99.90
32749;DHT22;19119;52.474;13.710;2024-03-23T06:10:05;6.80;99.90
32749;DHT22;19119;52.474;13.710;2024-03-23T06:12:31;6.80;99.90
32749;DHT22;19119;52.474;13.710;2024-03-23T06:14:56;6.70;99.90
32749;DHT22;19119;52.474;13.710;2024-03-23T06:17:22;6.60;99.90
32749;DHT22;19119;52.474;13.710;2024-03-23T06:19:47;6.70;99.90
32749;DHT22;19119;52.474;13.710;2024-03-23T06:22:13;6.60;99.90
32749;DHT22;19119;52.474;13.710;2024-03-23T06:24:38;6.60;99.90
32749;DHT22;19119;52.474;13.710;2024-03-23T06:27:04;6.60;99.90
32749;DHT22;19119;52.474;13.710;2024-03-23T06:29:30;6.70;99.90
32749;DHT22;19119;52.474;13.710;2024-03-23T06:31:55;6.70;99.90
32749;DHT22;19119;52.474;13.710;2024-03-23T06:34:21;6.70;99.90
32749;DHT22;19119;52.474;13.710;2024-03-23T06:36:49;6.70;99.90
32749;DHT22;19119;52.474;13.710;2024-03-23T06:39:15;6.80;99.90
32749;DHT22;19119;52.474;13.710;2024-03-23T06:41:42;6.80;99.90
32749;DHT22;19119;52.474;13.710;2024-03-23T06:44:08;6.90;99.90
32749;DHT22;19119;52.474;13.710;2024-03-23T06:46:33;6.80;99.90
32749;DHT22;19119;52.474;13.710;2024-03-23T06:48:59;6.90;99.90
32749;DHT22;19119;52.474;13.710;2024-03-23T06:51:24;6.90;99.90
32749;DHT22;19119;52.474;13.710;2024-03-23T06:53:50;6.90;99.90
32749;DHT22;19119;52.474;13.710;2024-03-23T06:56:15;6.90;99.90
32749;DHT22;19119;52.474;13.710;2024-03-23T06:58:41;6.80;99.90
32749;DHT22;19119;52.474;13.710;2024-03-23T07:01:06;6.80;99.90
32749;DHT22;19119;52.474;13.710;2024-03-23T07:03:32;6.80;99.90
32749;DHT22;19119;52.474;13.710;2024-03-23T07:05:58;6.90;99.90
32749;DHT22;19119;52.474;13.710;2024-03-23T07:08:24;6.80;99.90
32749;DHT22;19119;52.474;13.710;2024-03-23T07:10:49;6.90;99.90
32749;DHT22;19119;52.474;13.710;2024-03-23T07:13:15;7.10;99.90
32749;DHT22;19119;52.474;13.710;2024-03-23T07:15:40;6.90;99.90
32749;DHT22;19119;52.474;13.710;2024-03-23T07:18:06;6.80;99.90
32749;DHT22;19119;52.474;13.710;2024-03-23T07:20:31;6.80;99.90
32749;DHT22;19119;52.474;13.710;2024-03-23T07:22:57;6.80;99.90
32749;DHT22;19119;52.474;13.710;2024-03-23T07:25:22;6.80;99.90
32749;DHT22;19119;52.474;13.710;2024-03-23T07:27:48;6.80;99.90
32749;DHT22;19119;52.474;13.710;2024-03-23T07:30:14;6.80;99.90
32749;DHT22;19119;52.474;13.710;2024-03-23T07:32:39;6.80;99.90
32749;DHT22;19119;52.474;13.710;2024-03-23T07:35:05;6.90;99.90
32749;DHT22;19119;52.474;13.710;2024-03-23T07:37:31;6.80;99.90
32749;DHT22;19119;52.474;13.710;2024-03-23T07:39:56;6.80;99.90
32749;DHT22;19119;52.474;13.710;2024-03-23T07:42:23;6.90;99.90
32749;DHT22;19119;52.474;13.710;2024-03-23T07:44:48;7.00;99.90
32749;DHT22;19119;52.474;13.710;2024-03-23T07:47:14;7.00;99.90
32749;DHT22;19119;52.474;13.710;2024-03-23T07:49:40;6.90;99.90
32749;DHT22;19119;52.474;13.710;2024-03-23T07:52:05;6.80;99.90
32749;DHT22;19119;52.474;13.710;2024-03-23T07:54:31;6.70;99.90
32749;DHT22;19119;52.474;13.710;2024-03-23T07:56:56;6.60;99.90
32749;DHT22;19119;52.474;13.710;2024-03-23T07:59:22;6.60;99.90
32749;DHT22;19119;52.474;13.710;2024-03-23T08:01:47;6.60;99.90
32749;DHT22;19119;52.474;13.710;2024-03-23T08:04:13;6.70;99.90
32749;DHT22;19119;52.474;13.710;2024-03-23T08:06:38;6.70;99.90
32749;DHT22;19119;52.474;13.710;2024-03-23T08:09:04;6.70;99.90
32749;DHT22;19119;52.474;13.710;2024-03-23T08:11:30;6.60;99.90
32749;DHT22;19119;52.474;13.710;2024-03-23T08:13:56;6.70;99.90
32749;DHT22;19119;52.474;13.710;2024-03-23T08:16:22;6.70;99.90
32749;DHT22;19119;52.474;13.710;2024-03-23T08:18:48;6.70;99.90
32749;DHT22;19119;52.474;13.710;2024-03-23T08:21:13;6.60;99.90
32749;DHT22;19119;52.474;13.710;2024-03-23T08:23:39;6.70;99.90
32749;DHT22;19119;52.474;13.710;2024-03-23T08:26:12;6.70;99.90
32749;DHT22;19119;52.474;13.710;2024-03-23T08:28:38;6.70;99.90
32749;DHT22;19119;52.474;13.710;2024-03-23T08:31:08;6.80;99.90
32749;DHT22;19119;52.474;13.710;2024-03-23T08:33:34;6.60;99.90
32749;DHT22;19119;52.474;13.710;2024-03-23T08:36:07;6.50;99.90
32749;DHT22;19119;52.474;13.710;2024-03-23T08:38:34;6.50;99.90
32749;DHT22;19119;52.474;13.710;2024-03-23T08:41:04;6.60;99.90
32749;DHT22;19119;52.474;13.710;2024-03-23T08:43:31;6.50;99.90
32749;DHT22;19119;52.474;13.710;2024-03-23T08:46:06;6.50;99.90
32749;DHT22;19119;52.474;13.710;2024-03-23T08:48:35;6.40;99.90
32749;DHT22;19119;52.474;13.710;2024-03-23T08:51:05;6.50;99.90
32749;DHT22;19119;52.474;13.710;2024-03-23T08:53:31;6.50;99.90
32749;DHT22;19119;52.474;13.710;2024-03-23T08:55:57;6.30;99.90
32749;DHT22;19119;52.474;13.710;2024-03-23T08:58:27;6.20;99.90
32749;DHT22;19119;52.474;13.710;2024-03-23T09:00:53;6.10;99.90
32749;DHT22;19119;52.474;13.710;2024-03-23T09:03:22;6.10;99.90
32749;DHT22;19119;52.474;13.710;2024-03-23T09:05:47;6.00;99.90
32749;DHT22;19119;52.474;13.710;2024-03-23T09:08:13;6.00;99.90
32749;DHT22;19119;52.474;13.710;2024-03-23T09:10:39;5.90;99.90
32749;DHT22;19119;52.474;13.710;2024-03-23T09:13:05;5.90;99.90
32749;DHT22;19119;52.474;13.710;2024-03-23T09:15:30;6.00;99.90
32749;DHT22;19119;52.474;13.710;2024-03-23T09:17:58;6.10;99.90
32749;DHT22;19119;52.474;13.710;2024-03-23T09:20:24;6.10;99.90
32749;DHT22;19119;52.474;13.710;2024-03-23T09:22:49;6.00;99.90
32749;DHT22;19119;52.474;13.710;2024-03-23T09:25:15;6.00;99.90
32749;DHT22;19119;52.474;13.710;2024-03-23T09:27:40;5.90;99.90
32749;DHT22;19119;52.474;13.710;2024-03-23T09:30:06;6.00;99.90
32749;DHT22;19119;52.474;13.710;2024-03-23T09:32:32;5.90;99.90
32749;DHT22;19119;52.474;13.710;2024-03-23T09:34:57;5.60;99.90
32749;DHT22;19119;52.474;13.710;2024-03-23T09:37:22;5.60;99.90
32749;DHT22;19119;52.474;13.710;2024-03-23T09:39:48;5.50;99.90
32749;DHT22;19119;52.474;13.710;2024-03-23T09:42:13;5.40;99.90
32749;DHT22;19119;52.474;13.710;2024-03-23T09:44:40;5.40;99.90
32749;DHT22;19119;52.474;13.710;2024-03-23T09:47:05;5.40;99.90
32749;DHT22;19119;52.474;13.710;2024-03-23T09:49:34;5.10;99.90
32749;DHT22;19119;52.474;13.710;2024-03-23T09:52:02;5.00;99.90
32749;DHT22;19119;52.474;13.710;2024-03-23T09:54:28;4.90;99.90
32749;DHT22;19119;52.474;13.710;2024-03-23T09:56:53;4.80;99.90
32749;DHT22;19119;52.474;13.710;2024-03-23T09:59:19;4.80;99.90
32749;DHT22;19119;52.474;13.710;2024-03-23T10:01:44;4.80;99.90
32749;DHT22;19119;52.474;13.710;2024-03-23T10:04:10;4.70;99.90
32749;DHT22;19119;52.474;13.710;2024-03-23T10:06:35;4.70;99.90
32749;DHT22;19119;52.474;13.710;2024-03-23T10:09:02;4.70;99.90
32749;DHT22;19119;52.474;13.710;2024-03-23T10:11:41;4.70;99.90
32749;DHT22;19119;52.474;13.710;2024-03-23T10:14:09;4.70;99.90
32749;DHT22;19119;52.474;13.710;2024-03-23T10:16:34;4.70;99.90
32749;DHT22;19119;52.474;13.710;2024-03-23T10:19:00;4.70;99.90
32749;DHT22;19119;52.474;13.710;2024-03-23T10:21:25;4.80;99.90
32749;DHT22;19119;52.474;13.710;2024-03-23T10:23:51;4.80;99.90
32749;DHT22;19119;52.474;13.710;2024-03-23T10:26:21;4.80;99.90
32749;DHT22;19119;52.474;13.710;2024-03-23T10:29:02;4.80;99.90
32749;DHT22;19119;52.474;13.710;2024-03-23T10:31:33;4.90;99.90
32749;DHT22;19119;52.474;13.710;2024-03-23T10:34:01;4.90;99.90
32749;DHT22;19119;52.474;13.710;2024-03-23T10:36:26;5.00;99.90
32749;DHT22;19119;52.474;13.710;2024-03-23T10:38:54;4.90;99.90
32749;DHT22;19119;52.474;13.710;2024-03-23T10:41:19;4.90;99.90
32749;DHT22;19119;52.474;13.710;2024-03-23T10:43:46;4.90;99.90
32749;DHT22;19119;52.474;13.710;2024-03-23T10:46:12;4.90;99.90
32749;DHT22;19119;52.474;13.710;2024-03-23T10:48:37;4.80;99.90
32749;DHT22;19119;52.474;13.710;2024-03-23T10:51:04;4.70;99.90
32749;DHT22;19119;52.474;13.710;2024-03-23T10:53:33;4.50;99.90
32749;DHT22;19119;52.474;13.710;2024-03-23T10:55:59;4.40;99.90
32749;DHT22;19119;52.474;13.710;2024-03-23T10:58:31;4.30;99.90
32749;DHT22;19119;52.474;13.710;2024-03-23T11:00:58;4.30;99.90
32749;DHT22;19119;52.474;13.710;2024-03-23T11:03:34;4.20;99.90
32749;DHT22;19119;52.474;13.710;2024-03-23T11:06:02;4.10;99.90
32749;DHT22;19119;52.474;13.710;2024-03-23T11:08:32;4.20;99.90
32749;DHT22;19119;52.474;13.710;2024-03-23T11:11:18;4.20;99.90
32749;DHT22;19119;52.474;13.710;2024-03-23T11:13:47;4.20;99.90
32749;DHT22;19119;52.474;13.710;2024-03-23T11:18:39;4.60;99.90
32749;DHT22;19119;52.474;13.710;2024-03-23T11:21:06;4.70;99.90
32749;DHT22;19119;52.474;13.710;2024-03-23T11:23:32;4.70;99.90
32749;DHT22;19119;52.474;13.710;2024-03-23T11:25:57;4.80;99.90
32749;DHT22;19119;52.474;13.710;2024-03-23T11:28:23;5.00;99.90
32749;DHT22;19119;52.474;13.710;2024-03-23T11:30:48;5.00;99.90
32749;DHT22;19119;52.474;13.710;2024-03-23T11:33:14;5.20;99.90
32749;DHT22;19119;52.474;13.710;2024-03-23T11:35:40;5.30;99.90
32749;DHT22;19119;52.474;13.710;2024-03-23T11:38:13;5.40;99.90
32749;DHT22;19119;52.474;13.710;2024-03-23T11:40:42;5.40;99.90
32749;DHT22;19119;52.474;13.710;2024-03-23T11:43:10;5.30;99.90
32749;DHT22;19119;52.474;13.710;2024-03-23T11:45:43;5.50;99.90
32749;DHT22;19119;52.474;13.710;2024-03-23T11:50:38;5.70;99.90
32749;DHT22;19119;52.474;13.710;2024-03-23T11:55:47;5.80;99.90
32749;DHT22;19119;52.474;13.710;2024-03-23T11:58:13;5.90;99.90
32749;DHT22;19119;52.474;13.710;2024-03-23T12:00:40;6.00;99.90
32749;DHT22;19119;52.474;13.710;2024-03-23T12:03:06;6.00;99.90
32749;DHT22;19119;52.474;13.710;2024-03-23T12:05:32;5.90;99.90
32749;DHT22;19119;52.474;13.710;2024-03-23T12:08:17;6.00;99.90
32749;DHT22;19119;52.474;13.710;2024-03-23T12:10:51;6.10;99.90
32749;DHT22;19119;52.474;13.710;2024-03-23T12:13:18;6.10;99.90
32749;DHT22;19119;52.474;13.710;2024-03-23T12:15:50;6.10;99.90
32749;DHT22;19119;52.474;13.710;2024-03-23T12:18:16;6.20;99.90
32749;DHT22;19119;52.474;13.710;2024-03-23T12:20:42;6.20;99.90
32749;DHT22;19119;52.474;13.710;2024-03-23T12:23:12;6.30;99.90
32749;DHT22;19119;52.474;13.710;2024-03-23T12:25:38;6.30;99.90
32749;DHT22;19119;52.474;13.710;2024-03-23T12:28:05;6.30;99.90
32749;DHT22;19119;52.474;13.710;2024-03-23T12:30:33;6.30;99.90
32749;DHT22;19119;52.474;13.710;2024-03-23T12:32:59;6.40;99.90
32749;DHT22;19119;52.474;13.710;2024-03-23T12:35:24;6.50;99.90
32749;DHT22;19119;52.474;13.710;2024-03-23T12:37:50;6.60;99.90
32749;DHT22;19119;52.474;13.710;2024-03-23T12:40:15;6.80;99.90
32749;DHT22;19119;52.474;13.710;2024-03-23T12:42:41;7.00;99.90
32749;DHT22;19119;52.474;13.710;2024-03-23T12:45:07;7.00;99.90
32749;DHT22;19119;52.474;13.710;2024-03-23T12:47:32;7.00;99.90
32749;DHT22;19119;52.474;13.710;2024-03-23T12:49:58;6.90;99.90
32749;DHT22;19119;52.474;13.710;2024-03-23T12:52:23;6.90;99.90
32749;DHT22;19119;52.474;13.710;2024-03-23T12:54:56;6.80;99.90
32749;DHT22;19119;52.474;13.710;2024-03-23T12:57:26;6.80;99.90
32749;DHT22;19119;52.474;13.710;2024-03-23T12:59:52;6.90;99.90
32749;DHT22;19119;52.474;13.710;2024-03-23T13:02:21;6.90;99.90
32749;DHT22;19119;52.474;13.710;2024-03-23T13:04:49;6.90;99.90
32749;DHT22;19119;52.474;13.710;2024-03-23T13:07:15;6.90;99.90
32749;DHT22;19119;52.474;13.710;2024-03-23T13:09:41;6.90;99.90
32749;DHT22;19119;52.474;13.710;2024-03-23T13:12:07;7.00;99.90
32749;DHT22;19119;52.474;13.710;2024-03-23T13:14:33;7.20;99.90
32749;DHT22;19119;52.474;13.710;2024-03-23T13:16:59;7.40;99.90
32749;DHT22;19119;52.474;13.710;2024-03-23T13:19:24;7.40;99.90
32749;DHT22;19119;52.474;13.710;2024-03-23T13:21:53;7.50;99.90
32749;DHT22;19119;52.474;13.710;2024-03-23T13:24:25;7.50;99.90
32749;DHT22;19119;52.474;13.710;2024-03-23T13:26:51;7.50;99.90
32749;DHT22;19119;52.474;13.710;2024-03-23T13:29:18;7.50;99.90
32749;DHT22;19119;52.474;13.710;2024-03-23T13:31:43;7.50;99.90
32749;DHT22;19119;52.474;13.710;2024-03-23T13:34:09;7.50;99.90
32749;DHT22;19119;52.474;13.710;2024-03-23T13:36:34;7.40;99.90
32749;DHT22;19119;52.474;13.710;2024-03-23T13:39:02;7.80;99.90
32749;DHT22;19119;52.474;13.710;2024-03-23T13:41:31;8.10;99.90
32749;DHT22;19119;52.474;13.710;2024-03-23T13:43:57;8.40;99.90
32749;DHT22;19119;52.474;13.710;2024-03-23T13:46:22;8.90;99.90
32749;DHT22;19119;52.474;13.710;2024-03-23T13:48:48;9.20;99.90
32749;DHT22;19119;52.474;13.710;2024-03-23T13:51:13;9.50;99.90
32749;DHT22;19119;52.474;13.710;2024-03-23T13:53:38;9.40;99.90
32749;DHT22;19119;52.474;13.710;2024-03-23T13:56:04;9.50;99.90
32749;DHT22;19119;52.474;13.710;2024-03-23T13:58:30;9.70;99.90
32749;DHT22;19119;52.474;13.710;2024-03-23T14:00:57;9.70;99.90
32749;DHT22;19119;52.474;13.710;2024-03-23T14:03:23;9.70;99.90
32749;DHT22;19119;52.474;13.710;2024-03-23T14:05:49;9.60;99.90
32749;DHT22;19119;52.474;13.710;2024-03-23T14:08:14;9.80;99.90
32749;DHT22;19119;52.474;13.710;2024-03-23T14:10:41;9.90;99.90
32749;DHT22;19119;52.474;13.710;2024-03-23T14:13:07;9.80;99.90
32749;DHT22;19119;52.474;13.710;2024-03-23T14:15:33;9.80;99.90
32749;DHT22;19119;52.474;13.710;2024-03-23T14:17:59;9.70;99.90
32749;DHT22;19119;52.474;13.710;2024-03-23T14:20:25;9.70;99.90
32749;DHT22;19119;52.474;13.710;2024-03-23T14:22:51;9.50;99.90
32749;DHT22;19119;52.474;13.710;2024-03-23T14:25:17;9.60;99.90
32749;DHT22;19119;52.474;13.710;2024-03-23T14:27:46;9.80;99.90
32749;DHT22;19119;52.474;13.710;2024-03-23T14:30:12;9.60;99.90
32749;DHT22;19119;52.474;13.710;2024-03-23T14:32:39;9.30;99.90
32749;DHT22;19119;52.474;13.710;2024-03-23T14:35:05;9.10;99.90
32749;DHT22;19119;52.474;13.710;2024-03-23T14:37:36;9.20;99.90
32749;DHT22;19119;52.474;13.710;2024-03-23T14:40:02;9.40;99.90
32749;DHT22;19119;52.474;13.710;2024-03-23T14:42:28;9.80;99.90
32749;DHT22;19119;52.474;13.710;2024-03-23T14:44:53;10.00;99.90
32749;DHT22;19119;52.474;13.710;2024-03-23T14:47:19;9.70;99.90
32749;DHT22;19119;52.474;13.710;2024-03-23T14:49:47;9.40;99.90
32749;DHT22;19119;52.474;13.710;2024-03-23T14:52:13;9.40;99.90
32749;DHT22;19119;52.474;13.710;2024-03-23T14:54:39;9.20;99.90
32749;DHT22;19119;52.474;13.710;2024-03-23T14:57:04;9.20;99.90
32749;DHT22;19119;52.474;13.710;2024-03-23T14:59:31;9.40;99.90
32749;DHT22;19119;52.474;13.710;2024-03-23T15:01:57;9.50;99.90
32749;DHT22;19119;52.474;13.710;2024-03-23T15:04:23;9.60;99.90
32749;DHT22;19119;52.474;13.710;2024-03-23T15:06:49;9.20;99.90
32749;DHT22;19119;52.474;13.710;2024-03-23T15:09:15;9.10;99.90
32749;DHT22;19119;52.474;13.710;2024-03-23T15:11:41;8.90;99.90
32749;DHT22;19119;52.474;13.710;2024-03-23T15:14:06;8.90;99.90
32749;DHT22;19119;52.474;13.710;2024-03-23T15:16:33;8.90;99.90
32749;DHT22;19119;52.474;13.710;2024-03-23T15:18:58;8.70;99.90
32749;DHT22;19119;52.474;13.710;2024-03-23T15:21:23;8.40;99.90
32749;DHT22;19119;52.474;13.710;2024-03-23T15:23:49;8.10;99.90
32749;DHT22;19119;52.474;13.710;2024-03-23T15:26:15;7.60;99.90
32749;DHT22;19119;52.474;13.710;2024-03-23T15:28:41;7.10;99.90
32749;DHT22;19119;52.474;13.710;2024-03-23T15:31:27;6.80;99.90
32749;DHT22;19119;52.474;13.710;2024-03-23T15:33:53;6.70;99.90
32749;DHT22;19119;52.474;13.710;2024-03-23T15:36:19;6.80;99.90
32749;DHT22;19119;52.474;13.710;2024-03-23T15:38:45;6.80;99.90
32749;DHT22;19119;52.474;13.710;2024-03-23T15:41:10;7.00;99.90
32749;DHT22;19119;52.474;13.710;2024-03-23T15:43:36;7.10;99.90
32749;DHT22;19119;52.474;13.710;2024-03-23T15:46:03;7.10;99.90
32749;DHT22;19119;52.474;13.710;2024-03-23T15:48:30;7.30;99.90
32749;DHT22;19119;52.474;13.710;2024-03-23T15:51:01;7.50;99.90
32749;DHT22;19119;52.474;13.710;2024-03-23T15:53:27;7.40;99.90
32749;DHT22;19119;52.474;13.710;2024-03-23T15:56:03;7.50;99.90
32749;DHT22;19119;52.474;13.710;2024-03-23T15:58:30;7.50;99.90
32749;DHT22;19119;52.474;13.710;2024-03-23T16:01:02;7.50;99.90
32749;DHT22;19119;52.474;13.710;2024-03-23T16:03:29;7.30;99.90
32749;DHT22;19119;52.474;13.710;2024-03-23T16:05:56;7.30;99.90
32749;DHT22;19119;52.474;13.710;2024-03-23T16:08:22;7.30;99.90
32749;DHT22;19119;52.474;13.710;2024-03-23T16:10:48;7.30;99.90
32749;DHT22;19119;52.474;13.710;2024-03-23T16:13:14;7.30;99.90
32749;DHT22;19119;52.474;13.710;2024-03-23T16:15:40;7.20;99.90
32749;DHT22;19119;52.474;13.710;2024-03-23T16:18:06;7.20;99.90
32749;DHT22;19119;52.474;13.710;2024-03-23T16:20:31;7.10;99.90
32749;DHT22;19119;52.474;13.710;2024-03-23T16:22:59;7.00;99.90
32749;DHT22;19119;52.474;13.710;2024-03-23T16:25:24;7.00;99.90